createdAt,value
2023-01-07T00:02:14.087Z,100105.47
2023-01-07T00:04:43.443Z,100105.78
2023-01-07T00:07:12.586Z,100111.31
2023-01-07T00:09:44.489Z,100107.16
2023-01-07T00:12:15.995Z,100112.56
2023-01-07T00:14:47.684Z,100117.50
2023-01-07T00:17:20.469Z,100121.25
2023-01-07T00:19:57.844Z,100124.44
2023-01-07T00:22:29.294Z,100109.88
2023-01-07T00:25:06.934Z,100119.31
2023-01-07T00:27:35.578Z,100120.94
2023-01-07T00:30:05.418Z,100125.03
2023-01-07T00:32:54.734Z,100133.41
2023-01-07T00:35:24.337Z,100126.78
2023-01-07T00:38:01.477Z,100127.34
2023-01-07T00:40:32.111Z,100126.00
2023-01-07T00:43:11.719Z,100135.28
2023-01-07T00:45:44.763Z,100130.28
2023-01-07T00:48:18.210Z,100126.13
2023-01-07T00:50:49.657Z,100131.19
2023-01-07T00:53:21.291Z,100130.59
2023-01-07T00:55:52.025Z,100134.31
2023-01-07T00:58:34.848Z,100127.00
2023-01-07T01:01:05.084Z,100132.97
2023-01-07T01:03:36.609Z,100136.00
2023-01-07T01:06:10.188Z,100128.00
2023-01-07T01:08:41.298Z,100137.56
2023-01-07T01:11:20.955Z,100143.75
2023-01-07T01:13:50.399Z,100151.75
2023-01-07T01:16:36.923Z,100152.47
2023-01-07T01:19:13.176Z,100157.31
2023-01-07T01:21:44.364Z,100147.88
2023-01-07T01:24:22.973Z,100150.53
2023-01-07T01:26:54.285Z,100152.22
2023-01-07T01:29:26.580Z,100160.84
2023-01-07T01:31:55.672Z,100162.78
2023-01-07T01:34:30.698Z,100168.69
2023-01-07T01:37:07.232Z,100175.34
2023-01-07T01:39:36.150Z,100165.78
2023-01-07T01:42:06.321Z,100162.63
2023-01-07T01:44:41.520Z,100166.28
2023-01-07T01:47:24.015Z,100167.59
2023-01-07T01:50:00.984Z,100158.53
2023-01-07T01:52:48.463Z,100159.59
2023-01-07T01:55:24.119Z,100157.69
2023-01-07T01:57:59.325Z,100148.59
2023-01-07T02:00:30.334Z,100154.41
2023-01-07T02:03:07.989Z,100149.91
2023-01-07T02:05:44.273Z,100150.94
2023-01-07T02:08:15.285Z,100146.41
2023-01-07T02:10:44.023Z,100130.53
2023-01-07T02:13:30.570Z,100144.09
2023-01-07T02:16:05.848Z,100148.56
2023-01-07T02:18:50.594Z,100151.25
2023-01-07T02:21:34.032Z,100143.88
2023-01-07T02:24:30.264Z,100130.69
2023-01-07T02:27:22.360Z,100136.59
2023-01-07T02:30:28.163Z,100147.38
2023-01-07T02:33:36.559Z,100139.00
2023-01-07T02:36:44.565Z,100141.28
2023-01-07T02:39:47.030Z,100143.47
2023-01-07T02:42:35.363Z,100141.44
2023-01-07T02:45:10.158Z,100126.66
2023-01-07T02:47:47.519Z,100131.50
2023-01-07T02:50:17.076Z,100127.97
2023-01-07T02:53:03.927Z,100122.16
2023-01-07T02:55:41.737Z,100130.00
2023-01-07T02:58:23.749Z,100127.38
2023-01-07T03:01:39.020Z,100122.53
2023-01-07T03:04:38.424Z,100128.09
2023-01-07T03:07:26.159Z,100127.09
2023-01-07T03:10:03.132Z,100114.28
2023-01-07T03:12:38.356Z,100120.59
2023-01-07T03:15:15.547Z,100134.28
2023-01-07T03:17:47.605Z,100135.09
2023-01-07T03:20:17.796Z,100133.91
2023-01-07T03:22:48.228Z,100124.91
2023-01-07T03:25:23.410Z,100127.31
2023-01-07T03:27:56.303Z,100127.72
2023-01-07T03:30:27.051Z,100125.34
2023-01-07T03:33:08.868Z,100121.53
2023-01-07T03:35:39.680Z,100122.44
2023-01-07T03:38:13.401Z,100129.91
2023-01-07T03:40:46.091Z,100121.88
2023-01-07T03:43:20.046Z,100126.81
2023-01-07T03:45:51.349Z,100112.69
2023-01-07T03:48:25.442Z,100123.66
2023-01-07T03:50:57.654Z,100121.66
2023-01-07T03:53:27.039Z,100116.66
2023-01-07T03:55:59.691Z,100120.81
2023-01-07T03:58:29.205Z,100113.41
2023-01-07T04:01:01.198Z,100119.56
2023-01-07T04:03:33.749Z,100110.84
2023-01-07T04:06:03.062Z,100118.41
2023-01-07T04:08:37.165Z,100111.69
2023-01-07T04:11:09.956Z,100106.25
2023-01-07T04:13:50.675Z,100109.53
2023-01-07T04:16:20.341Z,100108.66
2023-01-07T04:18:50.717Z,100096.34
2023-01-07T04:21:30.172Z,100101.94
2023-01-07T04:23:59.907Z,100100.81
2023-01-07T04:26:36.052Z,100100.66
2023-01-07T04:29:08.033Z,100088.59
2023-01-07T04:31:36.869Z,100098.09
2023-01-07T04:34:07.957Z,100093.81
2023-01-07T04:36:44.361Z,100088.28
2023-01-07T04:39:14.239Z,100092.13
2023-01-07T04:41:51.673Z,100088.81
2023-01-07T04:44:30.390Z,100082.97
2023-01-07T04:47:01.174Z,100081.44
2023-01-07T04:49:32.978Z,100080.69
2023-01-07T04:52:02.182Z,100085.16
2023-01-07T04:54:33.983Z,100086.69
2023-01-07T04:57:09.377Z,100083.84
2023-01-07T04:59:41.201Z,100085.34
2023-01-07T05:02:10.027Z,100073.34
2023-01-07T05:04:43.000Z,100088.91
2023-01-07T05:07:13.075Z,100082.94
2023-01-07T05:09:50.202Z,100082.22
2023-01-07T05:12:26.421Z,100078.81
2023-01-07T05:15:04.454Z,100081.56
2023-01-07T05:17:38.680Z,100085.25
2023-01-07T05:20:12.050Z,100079.28
2023-01-07T05:22:41.956Z,100074.72
2023-01-07T05:25:19.779Z,100074.84
2023-01-07T05:28:00.635Z,100062.81
2023-01-07T05:30:41.626Z,100060.38
2023-01-07T05:33:12.566Z,100064.72
2023-01-07T05:35:41.213Z,100058.28
2023-01-07T05:38:10.351Z,100063.94
2023-01-07T05:40:42.259Z,100063.03
2023-01-07T05:43:16.024Z,100074.22
2023-01-07T05:45:46.802Z,100064.06
2023-01-07T05:48:16.568Z,100052.50
2023-01-07T05:50:48.748Z,100068.03
2023-01-07T05:53:19.751Z,100055.84
2023-01-07T05:55:53.739Z,100051.91
2023-01-07T05:58:28.385Z,100050.34
2023-01-07T06:01:06.013Z,100055.16
2023-01-07T06:03:35.892Z,100054.00
2023-01-07T06:06:07.507Z,100053.47
2023-01-07T06:08:37.741Z,100057.16
2023-01-07T06:11:12.971Z,100052.22
2023-01-07T06:13:43.715Z,100050.84
2023-01-07T06:16:14.722Z,100046.25
2023-01-07T06:18:43.478Z,100053.00
2023-01-07T06:21:12.690Z,100051.06
2023-01-07T06:23:43.528Z,100048.19
2023-01-07T06:26:17.801Z,100046.88
2023-01-07T06:28:54.643Z,100051.34
2023-01-07T06:31:25.774Z,100042.91
2023-01-07T06:33:54.282Z,100055.72
2023-01-07T06:36:30.351Z,100057.56
2023-01-07T06:39:02.996Z,100056.03
2023-01-07T06:41:34.780Z,100046.09
2023-01-07T06:44:13.707Z,100055.91
2023-01-07T06:46:44.583Z,100061.22
2023-01-07T06:49:16.125Z,100060.25
2023-01-07T06:51:48.156Z,100060.50
2023-01-07T06:54:24.143Z,100057.69
2023-01-07T06:56:56.755Z,100066.22
2023-01-07T06:59:39.763Z,100058.91
2023-01-07T07:02:19.718Z,100055.38
2023-01-07T07:04:50.762Z,100062.78
2023-01-07T07:07:20.529Z,100060.28
2023-01-07T07:09:50.907Z,100056.16
2023-01-07T07:12:21.870Z,100063.53
2023-01-07T07:14:56.559Z,100062.44
2023-01-07T07:17:26.535Z,100070.09
2023-01-07T07:19:55.080Z,100072.03
2023-01-07T07:22:33.324Z,100067.91
2023-01-07T07:25:04.844Z,100071.06
2023-01-07T07:27:34.058Z,100065.16
2023-01-07T07:30:11.312Z,100066.09
2023-01-07T07:32:40.603Z,100070.69
2023-01-07T07:35:10.070Z,100061.13
2023-01-07T07:37:39.601Z,100064.19
2023-01-07T07:40:10.246Z,100057.00
2023-01-07T07:43:09.419Z,100051.59
2023-01-07T07:45:33.486Z,100061.16
2023-01-07T07:48:05.607Z,100061.41
2023-01-07T07:50:36.935Z,100045.53
2023-01-07T07:53:10.607Z,100050.97
2023-01-07T07:55:42.297Z,100053.28
2023-01-07T07:58:11.755Z,100050.03
2023-01-07T08:00:42.647Z,100052.22
2023-01-07T08:03:11.745Z,100049.00
2023-01-07T08:05:50.296Z,100047.75
2023-01-07T08:08:24.884Z,100049.19
2023-01-07T08:10:56.382Z,100044.97
2023-01-07T08:13:25.917Z,100053.19
2023-01-07T08:15:57.028Z,100060.69
2023-01-07T08:18:27.979Z,100045.25
2023-01-07T08:20:58.784Z,100041.81
2023-01-07T08:23:30.351Z,100042.91
2023-01-07T08:26:07.920Z,100045.41
2023-01-07T08:28:37.526Z,100042.38
2023-01-07T08:31:21.990Z,100048.44
2023-01-07T08:33:50.484Z,100049.06
2023-01-07T08:36:23.427Z,100037.28
2023-01-07T08:38:55.190Z,100039.34
2023-01-07T08:41:25.938Z,100038.97
2023-01-07T08:43:55.326Z,100037.28
2023-01-07T08:46:31.452Z,100033.63
2023-01-07T08:48:59.876Z,100033.81
2023-01-07T08:51:36.953Z,100037.88
2023-01-07T08:54:18.766Z,100036.13
2023-01-07T08:56:51.528Z,100032.00
2023-01-07T08:59:27.819Z,100032.19
2023-01-07T09:02:14.777Z,100029.75
2023-01-07T09:04:43.937Z,100023.72
2023-01-07T09:07:16.062Z,100019.97
2023-01-07T09:09:44.233Z,100022.91
2023-01-07T09:12:21.318Z,100018.25
2023-01-07T09:14:52.817Z,100016.44
2023-01-07T09:17:26.340Z,100021.53
2023-01-07T09:19:56.066Z,100024.78
2023-01-07T09:22:25.433Z,100022.25
2023-01-07T09:24:56.375Z,100025.34
2023-01-07T09:27:27.097Z,100014.53
2023-01-07T09:30:01.914Z,100025.03
2023-01-07T09:32:38.601Z,100028.38
2023-01-07T09:35:11.123Z,100030.38
2023-01-07T09:37:44.410Z,100027.28
2023-01-07T09:40:24.573Z,100020.69
2023-01-07T09:43:04.707Z,100014.25
2023-01-07T09:45:36.136Z,100019.19
2023-01-07T09:48:15.831Z,100010.28
2023-01-07T09:50:51.223Z,100017.41
2023-01-07T09:53:25.590Z,100003.41
2023-01-07T09:56:11.244Z,100006.50
2023-01-07T09:58:49.185Z,99996.19
2023-01-07T10:01:27.235Z,99995.16
2023-01-07T10:04:24.517Z,99978.69
2023-01-07T10:06:59.123Z,99968.44
2023-01-07T10:09:35.913Z,99972.66
2023-01-07T10:12:19.134Z,99966.66
2023-01-07T10:15:14.051Z,99964.66
2023-01-07T10:18:12.441Z,99954.72
2023-01-07T10:20:47.586Z,99950.63
2023-01-07T10:23:28.337Z,99952.91
2023-01-07T10:25:58.981Z,99948.00
2023-01-07T10:28:40.085Z,99941.53
2023-01-07T10:31:17.983Z,99942.53
2023-01-07T10:33:49.914Z,99936.09
2023-01-07T10:36:24.769Z,99938.59
2023-01-07T10:39:02.177Z,99936.78
2023-01-07T10:41:40.794Z,99925.56
2023-01-07T10:44:40.342Z,99926.41
2023-01-07T10:47:18.828Z,99927.50
2023-01-07T10:50:01.285Z,99927.38
2023-01-07T10:52:46.547Z,99921.94
2023-01-07T10:55:40.392Z,99917.81
2023-01-07T10:58:15.069Z,99908.09
2023-01-07T11:00:47.172Z,99904.59
2023-01-07T11:03:21.238Z,99905.16
2023-01-07T11:05:55.427Z,99894.75
2023-01-07T11:08:33.940Z,99887.72
2023-01-07T11:11:05.414Z,99890.38
2023-01-07T11:13:37.716Z,99881.56
2023-01-07T11:16:11.030Z,99878.44
2023-01-07T11:18:46.103Z,99878.88
2023-01-07T11:21:43.080Z,99868.59
2023-01-07T11:24:36.859Z,99859.59
2023-01-07T11:27:12.596Z,99862.56
2023-01-07T11:29:48.235Z,99860.50
2023-01-07T11:32:29.685Z,99851.06
2023-01-07T11:35:01.002Z,99843.59
2023-01-07T11:37:41.199Z,99843.75
2023-01-07T11:40:37.603Z,99830.66
2023-01-07T11:43:27.264Z,99825.47
2023-01-07T11:46:19.241Z,99818.47
2023-01-07T11:48:58.286Z,99812.66
2023-01-07T11:51:26.969Z,99810.28
2023-01-07T11:53:59.546Z,99807.59
2023-01-07T11:56:33.675Z,99795.81
2023-01-07T11:59:24.496Z,99794.81
2023-01-07T12:02:03.285Z,99789.47
2023-01-07T12:04:34.292Z,99782.44
2023-01-07T12:07:04.088Z,99767.81
2023-01-07T12:09:41.951Z,99776.78
2023-01-07T12:15:25.019Z,99765.59
2023-01-07T12:18:25.334Z,99750.78
2023-01-07T12:21:23.404Z,99756.56
2023-01-07T12:24:00.179Z,99759.63
2023-01-07T12:26:38.252Z,99744.72
2023-01-07T12:29:25.975Z,99747.16
2023-01-07T12:32:15.472Z,99743.44
2023-01-07T12:34:51.150Z,99743.13
2023-01-07T12:37:30.381Z,99742.97
2023-01-07T12:40:10.942Z,99736.78
2023-01-07T12:42:47.019Z,99732.44
2023-01-07T12:45:24.494Z,99730.34
2023-01-07T12:48:08.117Z,99728.81
2023-01-07T12:50:41.044Z,99723.03
2023-01-07T12:53:17.758Z,99711.38
2023-01-07T12:55:49.800Z,99708.44
2023-01-07T12:58:36.612Z,99702.53
2023-01-07T13:01:20.421Z,99716.59
2023-01-07T13:04:00.398Z,99707.72
2023-01-07T13:06:43.698Z,99693.66
2023-01-07T13:09:31.189Z,99699.84
2023-01-07T13:12:41.855Z,99697.03
2023-01-07T13:15:30.125Z,99698.41
2023-01-07T13:18:19.039Z,99699.94
2023-01-07T13:21:02.574Z,99696.19
2023-01-07T13:23:43.191Z,99695.88
2023-01-07T13:26:23.214Z,99693.03
2023-01-07T13:29:18.775Z,99693.03
2023-01-07T13:32:07.278Z,99695.31
2023-01-07T13:34:49.379Z,99686.56
2023-01-07T13:37:39.245Z,99688.16
2023-01-07T13:40:31.262Z,99683.81
2023-01-07T13:43:13.901Z,99690.22
2023-01-07T13:45:50.703Z,99693.69
2023-01-07T13:48:32.985Z,99687.78
2023-01-07T13:51:08.926Z,99679.78
2023-01-07T13:53:53.555Z,99677.69
2023-01-07T13:56:38.594Z,99674.44
2023-01-07T13:59:30.620Z,99674.38
2023-01-07T14:02:24.258Z,99679.09
2023-01-07T14:05:24.392Z,99683.06
2023-01-07T14:08:01.629Z,99679.25
2023-01-07T14:10:40.689Z,99670.13
2023-01-07T14:13:26.667Z,99671.97
2023-01-07T14:16:11.068Z,99674.94
2023-01-07T14:19:25.475Z,99680.94
2023-01-07T14:22:08.976Z,99679.72
2023-01-07T14:25:16.045Z,99678.59
2023-01-07T14:28:34.553Z,99675.50
2023-01-07T14:31:04.081Z,99668.50
2023-01-07T14:33:38.201Z,99666.53
2023-01-07T14:36:08.723Z,99662.44
2023-01-07T14:39:04.781Z,99667.38
2023-01-07T14:41:37.015Z,99660.50
2023-01-07T14:44:35.638Z,99661.66
2023-01-07T14:47:06.074Z,99660.22
2023-01-07T14:50:11.218Z,99659.53
2023-01-07T14:53:17.330Z,99663.19
2023-01-07T14:56:19.476Z,99670.34
2023-01-07T14:59:06.880Z,99660.78
2023-01-07T15:02:02.132Z,99664.72
2023-01-07T15:05:31.029Z,99659.97
2023-01-07T15:08:20.102Z,99646.34
2023-01-07T15:11:13.020Z,99654.34
2023-01-07T15:14:06.590Z,99651.25
2023-01-07T15:16:38.045Z,99654.75
2023-01-07T15:19:24.800Z,99648.75
2023-01-07T15:22:05.013Z,99643.97
2023-01-07T15:24:41.723Z,99644.66
2023-01-07T15:27:21.276Z,99644.53
2023-01-07T15:30:01.071Z,99643.97
2023-01-07T15:32:41.405Z,99639.44
2023-01-07T15:35:28.051Z,99629.78
2023-01-07T15:37:57.269Z,99630.63
2023-01-07T15:40:28.173Z,99632.16
2023-01-07T15:43:03.551Z,99640.16
2023-01-07T15:45:44.168Z,99638.06
2023-01-07T15:48:21.078Z,99635.53
2023-01-07T15:50:51.306Z,99640.69
2023-01-07T15:53:23.340Z,99631.41
2023-01-07T15:55:55.875Z,99631.66
2023-01-07T15:58:35.928Z,99630.00
2023-01-07T16:03:55.956Z,99630.31
2023-01-07T16:06:45.727Z,99625.53
2023-01-07T16:09:27.387Z,99637.00
2023-01-07T16:11:58.094Z,99631.13
2023-01-07T16:14:28.701Z,99633.72
2023-01-07T16:17:21.375Z,99631.13
2023-01-07T16:19:52.353Z,99627.97
2023-01-07T16:22:26.244Z,99628.53
2023-01-07T16:25:04.188Z,99631.03
2023-01-07T16:27:35.503Z,99625.00
2023-01-07T16:30:18.266Z,99627.22
2023-01-07T16:32:47.169Z,99621.59
2023-01-07T16:35:25.577Z,99617.84
2023-01-07T16:38:00.819Z,99623.53
2023-01-07T16:40:36.372Z,99617.81
2023-01-07T16:43:06.876Z,99622.97
2023-01-07T16:45:40.692Z,99623.66
2023-01-07T16:48:19.708Z,99627.16
2023-01-07T16:50:51.338Z,99623.06
2023-01-07T16:53:35.201Z,99623.00
2023-01-07T16:56:25.398Z,99618.72
2023-01-07T16:59:08.106Z,99612.88
2023-01-07T17:01:40.357Z,99609.47
2023-01-07T17:04:10.965Z,99616.06
2023-01-07T17:06:43.967Z,99605.72
2023-01-07T17:09:22.484Z,99606.81
2023-01-07T17:11:52.978Z,99611.31
2023-01-07T17:14:53.765Z,99609.75
2023-01-07T17:17:29.116Z,99609.66
2023-01-07T17:20:22.838Z,99608.44
2023-01-07T17:22:52.840Z,99602.72
2023-01-07T17:25:37.613Z,99600.75
2023-01-07T17:28:10.503Z,99608.50
2023-01-07T17:30:42.113Z,99609.09
2023-01-07T17:33:21.359Z,99602.19
2023-01-07T17:35:54.690Z,99598.59
2023-01-07T17:38:31.227Z,99603.47
2023-01-07T17:41:40.619Z,99601.28
2023-01-07T17:44:11.566Z,99601.31
2023-01-07T17:46:40.142Z,99603.16
2023-01-07T17:49:14.661Z,99601.53
2023-01-07T17:51:54.478Z,99608.25
2023-01-07T17:54:39.371Z,99610.19
2023-01-07T17:57:26.501Z,99616.66
2023-01-07T17:59:55.208Z,99603.97
2023-01-07T18:02:28.491Z,99617.91
2023-01-07T18:05:10.730Z,99613.16
2023-01-07T18:07:42.730Z,99619.00
2023-01-07T18:10:16.057Z,99625.16
2023-01-07T18:12:49.576Z,99623.41
2023-01-07T18:15:21.467Z,99613.34
2023-01-07T18:17:50.078Z,99621.28
2023-01-07T18:20:31.009Z,99630.16
2023-01-07T18:23:05.357Z,99626.00
2023-01-07T18:25:34.205Z,99620.94
2023-01-07T18:28:06.595Z,99619.31
2023-01-07T18:30:36.877Z,99607.69
2023-01-07T18:33:07.245Z,99614.97
2023-01-07T18:35:37.629Z,99596.28
2023-01-07T18:38:17.656Z,99598.00
2023-01-07T18:40:49.297Z,99604.09
2023-01-07T18:43:32.634Z,99606.28
2023-01-07T18:46:02.159Z,99603.84
2023-01-07T18:48:30.793Z,99597.16
2023-01-07T18:51:01.340Z,99598.56
2023-01-07T18:53:32.030Z,99589.38
2023-01-07T18:56:07.854Z,99582.16
2023-01-07T18:58:58.555Z,99601.44
2023-01-07T19:01:27.506Z,99586.44
2023-01-07T19:03:57.671Z,99594.88
2023-01-07T19:06:28.352Z,99602.97
2023-01-07T19:09:05.970Z,99596.47
2023-01-07T19:11:42.310Z,99588.81
2023-01-07T19:14:24.239Z,99603.19
2023-01-07T19:16:57.764Z,99598.00
2023-01-07T19:19:47.955Z,99593.59
2023-01-07T19:22:20.795Z,99599.06
2023-01-07T19:24:52.102Z,99585.81
2023-01-07T19:27:21.250Z,99585.28
2023-01-07T19:30:01.381Z,99593.84
2023-01-07T19:32:33.769Z,99594.56
2023-01-07T19:35:02.364Z,99591.53
2023-01-07T19:37:33.708Z,99593.41
2023-01-07T19:40:06.109Z,99593.03
2023-01-07T19:42:34.814Z,99585.88
2023-01-07T19:45:12.215Z,99588.19
2023-01-07T19:47:46.150Z,99593.78
2023-01-07T19:50:28.877Z,99585.66
2023-01-07T19:53:03.069Z,99590.28
2023-01-07T19:55:35.377Z,99600.06
2023-01-07T19:58:15.061Z,99595.59
2023-01-07T20:01:07.556Z,99588.00
2023-01-07T20:03:43.575Z,99589.09
2023-01-07T20:06:26.636Z,99593.41
2023-01-07T20:09:12.472Z,99592.44
2023-01-07T20:11:43.799Z,99601.53
2023-01-07T20:14:21.965Z,99589.72
2023-01-07T20:16:57.428Z,99580.53
2023-01-07T20:19:30.378Z,99591.03
2023-01-07T20:22:01.711Z,99590.06
2023-01-07T20:24:33.034Z,99585.03
2023-01-07T20:27:16.081Z,99579.69
2023-01-07T20:29:47.809Z,99574.84
2023-01-07T20:32:19.788Z,99573.06
2023-01-07T20:34:50.140Z,99576.72
2023-01-07T20:37:22.047Z,99563.34
2023-01-07T20:39:51.774Z,99554.53
2023-01-07T20:42:20.276Z,99561.25
2023-01-07T20:45:01.061Z,99564.13
2023-01-07T20:47:36.373Z,99567.56
2023-01-07T20:50:11.160Z,99557.31
2023-01-07T20:52:42.833Z,99554.09
2023-01-07T20:55:14.698Z,99549.97
2023-01-07T20:57:45.949Z,99548.63
2023-01-07T21:00:26.552Z,99555.84
2023-01-07T21:02:56.602Z,99543.72
2023-01-07T21:05:26.848Z,99546.50
2023-01-07T21:07:57.408Z,99550.31
2023-01-07T21:10:29.026Z,99544.06
2023-01-07T21:13:00.561Z,99546.25
2023-01-07T21:15:32.100Z,99550.31
2023-01-07T21:18:02.695Z,99545.06
2023-01-07T21:20:33.495Z,99557.34
2023-01-07T21:23:04.423Z,99545.50
2023-01-07T21:25:33.937Z,99544.56
2023-01-07T21:28:03.573Z,99533.72
2023-01-07T21:30:41.980Z,99533.88
2023-01-07T21:33:20.453Z,99538.66
2023-01-07T21:35:49.682Z,99538.06
2023-01-07T21:38:25.637Z,99541.59
2023-01-07T21:40:57.483Z,99542.41
2023-01-07T21:43:29.481Z,99549.53
2023-01-07T21:46:01.097Z,99543.00
2023-01-07T21:48:39.989Z,99542.19
2023-01-07T21:51:18.587Z,99538.19
2023-01-07T21:53:48.685Z,99537.97
2023-01-07T21:56:23.575Z,99552.19
2023-01-07T21:58:52.252Z,99549.91
2023-01-07T22:01:28.574Z,99554.72
2023-01-07T22:04:06.787Z,99539.53
2023-01-07T22:06:40.954Z,99549.06
2023-01-07T22:09:18.952Z,99548.81
2023-01-07T22:11:48.494Z,99547.00
2023-01-07T22:14:22.786Z,99548.81
2023-01-07T22:16:52.040Z,99537.59
2023-01-07T22:19:28.632Z,99537.09
2023-01-07T22:21:58.465Z,99549.06
2023-01-07T22:24:27.523Z,99546.84
2023-01-07T22:26:59.183Z,99535.66
2023-01-07T22:29:27.532Z,99548.34
2023-01-07T22:31:56.203Z,99545.31
2023-01-07T22:34:32.778Z,99536.63
2023-01-07T22:37:06.535Z,99537.09
2023-01-07T22:39:40.730Z,99535.53
2023-01-07T22:42:14.807Z,99533.97
2023-01-07T22:44:45.756Z,99539.06
2023-01-07T22:47:19.675Z,99533.38
2023-01-07T22:49:59.296Z,99539.41
2023-01-07T22:52:31.092Z,99536.63
2023-01-07T22:55:04.127Z,99538.06
2023-01-07T22:57:42.162Z,99534.06
2023-01-07T23:00:17.981Z,99525.19
2023-01-07T23:02:50.403Z,99521.28
2023-01-07T23:05:24.168Z,99530.00
2023-01-07T23:07:57.582Z,99526.97
2023-01-07T23:10:28.850Z,99536.13
2023-01-07T23:12:58.420Z,99528.69
2023-01-07T23:15:27.618Z,99532.91
2023-01-07T23:17:59.368Z,99537.81
2023-01-07T23:20:36.146Z,99534.19
2023-01-07T23:23:17.964Z,99521.94
2023-01-07T23:25:49.768Z,99522.06
2023-01-07T23:28:24.141Z,99517.47
2023-01-07T23:30:54.241Z,99513.00
2023-01-07T23:33:26.107Z,99503.75
2023-01-07T23:36:06.228Z,99516.53
2023-01-07T23:38:38.710Z,99508.56
2023-01-07T23:41:13.385Z,99503.13
2023-01-07T23:43:44.890Z,99500.69
2023-01-07T23:46:13.494Z,99491.41
2023-01-07T23:48:42.984Z,99495.53
2023-01-07T23:51:20.479Z,99487.44
2023-01-07T23:54:00.130Z,99479.38
2023-01-07T23:56:29.461Z,99478.28
2023-01-07T23:59:03.165Z,99480.47
